Time;durP1;ratioP1;P1;durP2;ratioP2;P2;SDS_P1;SDS_P2;PMS_P1;PMS_P2;Temp;Humidity;BMP_temperature;BMP_pressure;BME280_temperature;BME280_humidity;BME280_pressure;Samples;Min_cycle;Max_cycle;Signal;HPM_P1;HPM_P2
2023/01/05 00:01:00;;;;;;;21.63;7.13;;;9.50;99.90;;;;;;5004751;28;20041;-69
2023/01/05 00:03:26;;;;;;;26.23;6.72;;;9.50;99.90;;;;;;5008970;28;20041;-69
2023/01/05 00:05:51;;;;;;;18.02;5.15;;;9.50;99.90;;;;;;5007446;28;20042;-70
2023/01/05 00:08:17;;;;;;;26.27;6.00;;;9.50;99.90;;;;;;4991313;28;20137;-70
2023/01/05 00:24:28;;;;;;;21.73;6.32;;;9.50;99.90;;;;;;5003121;28;20168;-69
2023/01/05 00:26:54;;;;;;;18.08;6.40;;;9.50;99.90;;;;;;5005777;28;20056;-69
2023/01/05 00:29:19;;;;;;;24.67;6.63;;;9.50;99.90;;;;;;5008695;28;20049;-68
2023/01/05 00:31:45;;;;;;;29.23;8.25;;;9.50;99.90;;;;;;5005170;28;20038;-69
2023/01/05 00:34:11;;;;;;;17.60;7.00;;;9.50;99.90;;;;;;5001197;28;20044;-69
2023/01/05 00:36:37;;;;;;;27.73;6.63;;;9.50;99.90;;;;;;5007831;28;20094;-69
2023/01/05 00:39:03;;;;;;;32.28;7.13;;;9.50;99.90;;;;;;5008645;28;20050;-69
2023/01/05 00:41:29;;;;;;;29.83;8.70;;;9.50;99.90;;;;;;5006297;28;20092;-69
2023/01/05 00:43:54;;;;;;;32.78;10.00;;;9.50;99.90;;;;;;5004292;28;20038;-69
2023/01/05 00:46:20;;;;;;;33.35;8.10;;;9.50;99.90;;;;;;4990378;28;20155;-69
2023/01/05 00:48:46;;;;;;;27.73;7.85;;;9.50;99.90;;;;;;4990631;28;20095;-69
2023/01/05 00:51:11;;;;;;;24.63;8.20;;;9.50;99.90;;;;;;5007884;28;20046;-69
2023/01/05 00:53:40;;;;;;;32.88;7.65;;;9.50;99.90;;;;;;4990354;28;20069;-69
2023/01/05 00:56:06;;;;;;;41.50;8.50;;;9.50;99.90;;;;;;4990749;28;20518;-69
2023/01/05 00:58:32;;;;;;;25.75;7.60;;;9.50;99.90;;;;;;4989057;28;20648;-69
2023/01/05 01:00:57;;;;;;;26.50;6.60;;;9.50;99.90;;;;;;4986912;28;20054;-69
2023/01/05 01:03:24;;;;;;;21.92;6.70;;;9.50;99.90;;;;;;5008285;28;20049;-69
2023/01/05 01:05:57;;;;;;;38.80;7.68;;;9.50;99.90;;;;;;5007970;28;20045;-69
2023/01/05 01:08:22;;;;;;;38.50;8.38;;;9.50;99.90;;;;;;4989884;28;20053;-69
2023/01/05 01:10:48;;;;;;;25.73;7.72;;;9.50;99.90;;;;;;5003322;28;20041;-69
2023/01/05 01:13:14;;;;;;;34.42;8.85;;;9.50;99.90;;;;;;4989529;28;20046;-69
2023/01/05 01:15:39;;;;;;;28.15;8.13;;;9.50;99.90;;;;;;4984229;28;20137;-70
2023/01/05 01:18:05;;;;;;;28.48;6.80;;;9.50;99.90;;;;;;5002017;28;20129;-69
2023/01/05 01:20:30;;;;;;;27.85;7.72;;;9.60;99.90;;;;;;5000325;28;20077;-69
2023/01/05 01:22:59;;;;;;;31.20;7.97;;;9.50;99.90;;;;;;5006983;28;20052;-69
2023/01/05 01:25:25;;;;;;;25.88;6.95;;;9.50;99.90;;;;;;5007734;28;20100;-69
2023/01/05 01:27:51;;;;;;;31.15;7.20;;;9.50;99.90;;;;;;5007592;28;20049;-69
2023/01/05 01:30:18;;;;;;;25.80;6.50;;;9.50;99.90;;;;;;5005908;28;20404;-69
2023/01/05 01:32:44;;;;;;;24.70;7.28;;;9.50;99.90;;;;;;5006986;28;20496;-69
2023/01/05 01:35:10;;;;;;;27.55;7.60;;;9.50;99.90;;;;;;4998828;28;20124;-69
2023/01/05 01:37:36;;;;;;;32.58;7.97;;;9.50;99.90;;;;;;5005776;28;20124;-69
2023/01/05 01:40:01;;;;;;;23.75;6.32;;;9.50;99.90;;;;;;5007110;28;20143;-69
2023/01/05 01:42:27;;;;;;;31.10;7.30;;;9.60;99.90;;;;;;5007692;28;20054;-69
2023/01/05 01:44:57;;;;;;;29.63;7.25;;;9.50;99.90;;;;;;5007477;28;20045;-69
2023/01/05 01:47:44;;;;;;;32.30;7.72;;;9.60;99.90;;;;;;5006998;28;20058;-69
2023/01/05 01:50:14;;;;;;;32.42;6.40;;;9.60;99.90;;;;;;5006150;28;20057;-69
2023/01/05 01:52:41;;;;;;;34.17;7.40;;;9.60;99.90;;;;;;5005909;28;20037;-69
2023/01/05 01:55:07;;;;;;;27.63;6.97;;;9.60;99.90;;;;;;5006625;28;20046;-69
2023/01/05 01:57:35;;;;;;;31.42;7.82;;;9.50;99.90;;;;;;5007186;28;20054;-70
2023/01/05 02:00:04;;;;;;;40.22;7.88;;;9.60;99.90;;;;;;4972764;28;20156;-69
2023/01/05 02:02:29;;;;;;;27.92;7.85;;;9.50;99.90;;;;;;5006992;28;20562;-69
2023/01/05 02:05:00;;;;;;;31.25;7.95;;;9.50;99.90;;;;;;5005029;28;20116;-69
2023/01/05 02:07:31;;;;;;;28.75;6.75;;;9.50;99.90;;;;;;5007154;28;20064;-69
2023/01/05 02:09:56;;;;;;;25.20;6.38;;;9.50;99.90;;;;;;5007320;28;20077;-69
2023/01/05 02:13:05;;;;;;;38.90;6.88;;;9.50;99.90;;;;;;4992340;28;20150;-69
2023/01/05 02:15:34;;;;;;;25.13;6.47;;;9.50;99.90;;;;;;4954439;28;20107;-69
2023/01/05 02:18:10;;;;;;;32.47;8.60;;;9.50;99.90;;;;;;5006811;28;20042;-69
2023/01/05 02:21:01;;;;;;;34.03;7.60;;;9.50;99.90;;;;;;5005966;28;20046;-69
2023/01/05 02:23:34;;;;;;;47.05;8.85;;;9.50;99.90;;;;;;4995322;28;20080;-69
2023/01/05 02:26:12;;;;;;;29.40;7.07;;;9.50;99.90;;;;;;5007077;28;20048;-69
2023/01/05 02:29:11;;;;;;;39.83;8.50;;;9.50;99.90;;;;;;5006283;28;20077;-69
2023/01/05 02:32:05;;;;;;;22.52;6.68;;;9.50;99.90;;;;;;5006879;28;20129;-69
2023/01/05 02:34:51;;;;;;;36.72;6.93;;;9.50;99.90;;;;;;4999776;28;20056;-68
2023/01/05 02:37:42;;;;;;;35.90;8.43;;;9.40;99.90;;;;;;4993024;28;20053;-68
2023/01/05 02:40:18;;;;;;;30.40;7.30;;;9.50;99.90;;;;;;5005055;28;20736;-69
2023/01/05 02:42:46;;;;;;;28.13;7.95;;;9.50;99.90;;;;;;5008554;28;20786;-68
2023/01/05 02:45:15;;;;;;;36.42;7.80;;;9.50;99.90;;;;;;4974116;28;20161;-69
2023/01/05 02:47:43;;;;;;;46.50;8.75;;;9.50;99.90;;;;;;4977173;28;20056;-68
2023/01/05 02:50:16;;;;;;;28.55;7.53;;;9.50;99.90;;;;;;5010305;28;20053;-68
2023/01/05 02:52:46;;;;;;;27.50;7.60;;;9.50;99.90;;;;;;5006025;28;20041;-68
2023/01/05 02:55:18;;;;;;;36.80;7.57;;;9.50;99.90;;;;;;5009855;28;20052;-69
2023/01/05 02:57:51;;;;;;;37.72;8.50;;;9.50;99.90;;;;;;5005220;28;20050;-68
2023/01/05 03:00:27;;;;;;;37.25;10.07;;;9.50;99.90;;;;;;5008992;28;20045;-69
2023/01/05 03:03:02;;;;;;;33.88;8.55;;;9.50;99.90;;;;;;5006760;28;20049;-68
2023/01/05 03:05:54;;;;;;;25.27;8.05;;;9.50;99.90;;;;;;5010144;28;20454;-68
2023/01/05 03:08:22;;;;;;;24.92;8.52;;;9.50;99.90;;;;;;4999821;28;20042;-69
2023/01/05 03:13:51;;;;;;;22.75;7.07;;;9.50;99.90;;;;;;5002840;28;20050;-68
2023/01/05 03:16:30;;;;;;;39.53;7.53;;;9.40;99.90;;;;;;5009100;28;20050;-69
2023/01/05 03:35:42;;;;;;;33.95;8.77;;;9.40;99.90;;;;;;4991769;28;20502;-69
2023/01/05 03:38:25;;;;;;;25.92;7.40;;;9.40;99.90;;;;;;5010037;28;20045;-69
2023/01/05 03:40:52;;;;;;;32.90;7.70;;;9.40;99.90;;;;;;5009856;28;20103;-68
2023/01/05 03:43:19;;;;;;;40.03;9.40;;;9.40;99.90;;;;;;5007781;28;20484;-68
2023/01/05 03:45:51;;;;;;;22.80;7.28;;;9.40;99.90;;;;;;5008779;28;20041;-69
2023/01/05 03:48:17;;;;;;;24.15;8.07;;;9.40;99.90;;;;;;5008910;28;20080;-69
2023/01/05 03:50:42;;;;;;;32.10;8.35;;;9.40;99.90;;;;;;4992014;28;20077;-69
2023/01/05 03:53:08;;;;;;;44.03;9.82;;;9.40;99.90;;;;;;5009884;28;20050;-69
2023/01/05 03:55:34;;;;;;;30.48;7.43;;;9.40;99.90;;;;;;4991875;28;20930;-69
2023/01/05 03:57:59;;;;;;;33.05;9.68;;;9.40;99.90;;;;;;5009427;28;20048;-69
2023/01/05 04:00:25;;;;;;;46.63;9.63;;;9.40;99.90;;;;;;5006269;28;20045;-69
2023/01/05 04:02:51;;;;;;;32.70;8.35;;;9.40;99.90;;;;;;4998536;28;20522;-69
2023/01/05 04:05:17;;;;;;;28.58;7.82;;;9.40;99.90;;;;;;5008992;28;20049;-69
2023/01/05 04:07:43;;;;;;;33.45;8.27;;;9.40;99.90;;;;;;4991360;28;20410;-69
2023/01/05 04:10:09;;;;;;;44.33;9.35;;;9.30;99.90;;;;;;5008631;28;20042;-70
2023/01/05 04:12:35;;;;;;;22.75;7.40;;;9.40;99.90;;;;;;4991287;28;20049;-71
2023/01/05 04:15:02;;;;;;;31.27;8.43;;;9.40;99.90;;;;;;5003100;28;20050;-71
2023/01/05 04:17:28;;;;;;;38.08;9.70;;;9.40;99.90;;;;;;5006714;28;20053;-71
2023/01/05 04:19:54;;;;;;;46.65;9.23;;;9.40;99.90;;;;;;5003007;28;20050;-70
2023/01/05 04:22:19;;;;;;;38.63;8.13;;;9.40;99.90;;;;;;5002826;28;20852;-70
2023/01/05 04:24:45;;;;;;;30.60;7.90;;;9.40;99.90;;;;;;5002268;28;21505;-71
2023/01/05 04:27:10;;;;;;;33.35;8.63;;;9.40;99.90;;;;;;5002749;28;20068;-70
2023/01/05 04:29:36;;;;;;;25.15;7.22;;;9.50;99.90;;;;;;4986843;28;20755;-71
2023/01/05 04:32:02;;;;;;;52.15;10.27;;;9.50;99.90;;;;;;5006129;28;20140;-71
2023/01/05 04:34:27;;;;;;;39.33;8.23;;;9.50;99.90;;;;;;4977278;28;20054;-70
2023/01/05 04:36:53;;;;;;;37.40;9.75;;;9.50;99.90;;;;;;4987495;28;20049;-71
2023/01/05 04:39:19;;;;;;;30.52;8.73;;;9.50;99.90;;;;;;5001242;28;20046;-70
2023/01/05 04:41:47;;;;;;;32.35;8.75;;;9.50;99.90;;;;;;5007261;28;20038;-70
2023/01/05 04:44:13;;;;;;;31.55;8.32;;;9.50;99.90;;;;;;5008105;28;20058;-70
2023/01/05 04:46:39;;;;;;;27.23;8.60;;;9.50;99.90;;;;;;4989322;28;20046;-70
2023/01/05 04:49:04;;;;;;;30.95;8.90;;;9.50;99.90;;;;;;4976920;28;20066;-70
2023/01/05 04:51:30;;;;;;;28.45;7.43;;;9.50;99.90;;;;;;4984634;28;20384;-70
2023/01/05 04:53:56;;;;;;;27.48;9.20;;;9.50;99.90;;;;;;4990456;28;20538;-70
2023/01/05 04:56:21;;;;;;;37.53;7.93;;;9.50;99.90;;;;;;5007999;28;20150;-70
2023/01/05 04:58:47;;;;;;;28.00;7.22;;;9.50;99.90;;;;;;5007875;28;20503;-70
2023/01/05 05:01:13;;;;;;;34.05;8.95;;;9.50;99.90;;;;;;5008002;28;20398;-70
2023/01/05 05:03:38;;;;;;;32.78;8.73;;;9.50;99.90;;;;;;5008198;28;20029;-70
2023/01/05 05:06:04;;;;;;;25.25;7.90;;;9.50;99.90;;;;;;5002002;28;20039;-70
2023/01/05 05:08:31;;;;;;;37.70;9.00;;;9.50;99.90;;;;;;4986236;28;20054;-70
2023/01/05 05:10:57;;;;;;;23.60;7.72;;;9.50;99.90;;;;;;5007904;28;20078;-70
2023/01/05 05:13:22;;;;;;;34.65;8.30;;;9.50;99.90;;;;;;5008593;28;20080;-70
2023/01/05 05:15:48;;;;;;;36.65;8.75;;;9.50;99.90;;;;;;5007945;28;20045;-70
2023/01/05 05:18:14;;;;;;;28.58;7.45;;;9.50;99.90;;;;;;5007448;28;20411;-70
2023/01/05 05:20:42;;;;;;;20.77;8.07;;;9.50;99.90;;;;;;5008214;28;20074;-70
2023/01/05 05:23:09;;;;;;;35.33;8.80;;;9.50;99.90;;;;;;5005449;28;20057;-70
2023/01/05 05:25:34;;;;;;;26.05;7.60;;;9.50;99.90;;;;;;5007541;28;20689;-70
2023/01/05 05:28:00;;;;;;;19.42;6.78;;;9.50;99.90;;;;;;5007849;28;20133;-70
2023/01/05 05:30:25;;;;;;;24.77;7.85;;;9.50;99.90;;;;;;5007438;28;20103;-70
2023/01/05 05:32:51;;;;;;;29.30;7.70;;;9.50;99.90;;;;;;5006526;28;20124;-70
2023/01/05 05:35:17;;;;;;;23.27;7.07;;;9.60;99.90;;;;;;4998481;28;20508;-70
2023/01/05 05:37:42;;;;;;;29.95;7.72;;;9.50;99.90;;;;;;4989957;28;20130;-70
2023/01/05 05:40:09;;;;;;;19.33;6.53;;;9.50;99.90;;;;;;5005590;28;20050;-70
2023/01/05 05:42:34;;;;;;;27.08;8.05;;;9.50;99.90;;;;;;5007485;28;20049;-69
2023/01/05 05:45:00;;;;;;;28.25;7.43;;;9.50;99.90;;;;;;4993729;28;20050;-70
2023/01/05 05:47:26;;;;;;;28.25;7.32;;;9.50;99.90;;;;;;5007214;28;20038;-70
2023/01/05 05:49:51;;;;;;;31.83;7.65;;;9.60;99.90;;;;;;5004719;28;20045;-69
2023/01/05 05:52:17;;;;;;;27.10;7.90;;;9.60;99.90;;;;;;5006539;28;20092;-70
2023/01/05 05:54:44;;;;;;;29.52;7.68;;;9.50;99.90;;;;;;4974122;28;20077;-70
2023/01/05 05:57:09;;;;;;;31.15;8.63;;;9.60;99.90;;;;;;4990412;28;20571;-70
2023/01/05 05:59:35;;;;;;;24.17;8.02;;;9.60;99.90;;;;;;4987485;28;20128;-70
2023/01/05 06:02:00;;;;;;;30.85;6.97;;;9.60;99.90;;;;;;5004512;28;20053;-70
2023/01/05 06:04:26;;;;;;;26.40;6.68;;;9.60;99.90;;;;;;5007240;28;20034;-70
2023/01/05 06:06:52;;;;;;;27.27;7.28;;;9.60;99.90;;;;;;5005802;28;20108;-69
2023/01/05 06:09:17;;;;;;;38.17;8.52;;;9.60;99.90;;;;;;4988948;28;20128;-70
2023/01/05 06:11:43;;;;;;;23.25;6.53;;;9.60;99.90;;;;;;5007081;28;20104;-70
2023/01/05 06:14:09;;;;;;;38.70;8.82;;;9.50;99.90;;;;;;5007480;28;20038;-70
2023/01/05 06:16:34;;;;;;;35.50;7.50;;;9.60;99.90;;;;;;5000152;28;20077;-70
2023/01/05 06:19:00;;;;;;;29.70;8.52;;;9.50;99.90;;;;;;4989325;28;20064;-70
2023/01/05 06:21:26;;;;;;;19.83;6.80;;;9.60;99.90;;;;;;5007057;28;20037;-70
2023/01/05 06:23:51;;;;;;;34.10;8.18;;;9.60;99.90;;;;;;5003172;28;20494;-70
2023/01/05 06:26:17;;;;;;;22.95;7.43;;;9.60;99.90;;;;;;5003108;28;20100;-70
2023/01/05 06:28:43;;;;;;;26.55;7.90;;;9.60;99.90;;;;;;5003210;28;20042;-70
2023/01/05 06:31:08;;;;;;;28.40;7.63;;;9.60;99.90;;;;;;5004994;28;20054;-70
2023/01/05 06:33:34;;;;;;;50.50;9.07;;;9.60;99.90;;;;;;5001473;28;20041;-70
2023/01/05 06:35:59;;;;;;;36.55;8.45;;;9.60;99.90;;;;;;5006664;28;20126;-70
2023/01/05 06:38:26;;;;;;;30.08;8.23;;;9.50;99.90;;;;;;5006855;28;20046;-70
2023/01/05 06:40:53;;;;;;;26.23;8.30;;;9.60;99.90;;;;;;4988576;28;20058;-70
2023/01/05 06:43:19;;;;;;;24.52;7.60;;;9.50;99.90;;;;;;5006453;28;20419;-70
2023/01/05 06:45:45;;;;;;;28.00;7.28;;;9.50;99.90;;;;;;5007080;28;20092;-70
2023/01/05 06:48:10;;;;;;;34.70;8.25;;;9.50;99.90;;;;;;4989650;28;20104;-71
2023/01/05 06:50:36;;;;;;;27.50;7.05;;;9.50;99.90;;;;;;5000949;28;20042;-71
2023/01/05 06:53:02;;;;;;;29.23;7.70;;;9.50;99.90;;;;;;5007269;28;20057;-71
2023/01/05 06:55:28;;;;;;;22.02;7.63;;;9.40;99.90;;;;;;5005989;28;20056;-71
2023/01/05 06:57:53;;;;;;;35.63;8.38;;;9.40;99.90;;;;;;5006225;28;20495;-71
2023/01/05 07:00:19;;;;;;;33.10;8.32;;;9.40;99.90;;;;;;5006876;28;20081;-71
2023/01/05 07:02:45;;;;;;;20.80;7.03;;;9.40;99.90;;;;;;4989224;28;20085;-71
2023/01/05 07:05:11;;;;;;;22.30;8.02;;;9.40;99.90;;;;;;5007067;28;20046;-71
2023/01/05 07:07:38;;;;;;;35.42;8.07;;;9.40;99.90;;;;;;4995900;28;20043;-71
2023/01/05 07:10:04;;;;;;;24.35;7.68;;;9.30;99.90;;;;;;5000745;28;20038;-71
2023/01/05 07:12:30;;;;;;;29.20;8.35;;;9.30;99.90;;;;;;4989498;28;20062;-71
2023/01/05 07:14:55;;;;;;;37.22;9.13;;;9.30;99.90;;;;;;4991961;28;20130;-71
2023/01/05 07:17:21;;;;;;;38.25;9.55;;;9.30;99.90;;;;;;5006000;28;20112;-71
2023/01/05 07:19:47;;;;;;;38.58;8.55;;;9.30;99.90;;;;;;5009356;28;20046;-71
2023/01/05 07:22:12;;;;;;;30.17;7.72;;;9.30;99.90;;;;;;4992922;28;20707;-71
2023/01/05 07:24:38;;;;;;;26.38;8.10;;;9.30;99.90;;;;;;4988820;28;20668;-71
2023/01/05 07:27:04;;;;;;;42.13;8.32;;;9.30;99.90;;;;;;5009262;28;20050;-71
2023/01/05 07:29:29;;;;;;;24.90;7.20;;;9.30;99.90;;;;;;5010114;28;20060;-71
2023/01/05 07:31:55;;;;;;;35.97;8.82;;;9.30;99.90;;;;;;4977895;28;20679;-71
2023/01/05 07:34:21;;;;;;;38.25;8.98;;;9.30;99.90;;;;;;5010109;28;20096;-71
2023/01/05 07:36:48;;;;;;;32.10;8.05;;;9.30;99.90;;;;;;5005497;28;20054;-71
2023/01/05 07:39:15;;;;;;;27.85;7.65;;;9.30;99.90;;;;;;4992089;28;20541;-71
2023/01/05 07:41:41;;;;;;;27.45;6.70;;;9.30;99.90;;;;;;5002837;28;20057;-71
2023/01/05 07:44:07;;;;;;;22.73;7.53;;;9.30;99.90;;;;;;4975240;28;20042;-71
2023/01/05 07:46:32;;;;;;;29.58;8.32;;;9.30;99.90;;;;;;4991694;28;20045;-71
2023/01/05 07:48:59;;;;;;;28.02;8.45;;;9.30;99.90;;;;;;5008211;28;20132;-71
2023/01/05 07:51:26;;;;;;;38.35;8.90;;;9.30;99.90;;;;;;4987907;28;20173;-71
2023/01/05 07:53:52;;;;;;;43.45;8.70;;;9.30;99.90;;;;;;4991426;28;20042;-71
2023/01/05 07:56:18;;;;;;;23.85;7.68;;;9.30;99.90;;;;;;5008653;28;20854;-71
2023/01/05 07:58:44;;;;;;;26.95;8.10;;;9.30;99.90;;;;;;5003895;28;20112;-71
2023/01/05 08:01:12;;;;;;;28.25;7.45;;;9.30;99.90;;;;;;5009285;28;20042;-71
2023/01/05 08:03:38;;;;;;;37.00;9.27;;;9.30;99.90;;;;;;4975348;28;20080;-71
2023/01/05 08:06:06;;;;;;;31.60;8.52;;;9.30;99.90;;;;;;4990954;28;20102;-71
2023/01/05 08:08:32;;;;;;;32.47;7.38;;;9.30;99.90;;;;;;4991400;28;20466;-71
2023/01/05 08:10:58;;;;;;;29.08;7.60;;;9.30;99.90;;;;;;4984408;28;20125;-71
2023/01/05 08:16:08;;;;;;;31.80;8.88;;;9.30;99.90;;;;;;4987450;28;20395;-71
2023/01/05 08:18:33;;;;;;;28.13;8.02;;;9.40;99.90;;;;;;5008598;28;20076;-71
2023/01/05 08:21:03;;;;;;;31.50;7.95;;;9.30;99.90;;;;;;5007415;28;20100;-70
2023/01/05 08:23:30;;;;;;;30.23;8.05;;;9.30;99.90;;;;;;4986152;28;20546;-71
2023/01/05 08:25:56;;;;;;;27.03;7.70;;;9.30;99.90;;;;;;5001036;28;20088;-70
2023/01/05 08:28:23;;;;;;;22.70;7.57;;;9.30;99.90;;;;;;5007219;28;20077;-70
2023/01/05 08:30:49;;;;;;;26.42;7.50;;;9.30;99.90;;;;;;4999363;28;20041;-70
2023/01/05 08:33:15;;;;;;;30.77;8.23;;;9.30;99.90;;;;;;4971793;28;20046;-70
2023/01/05 08:35:42;;;;;;;28.58;7.95;;;9.40;99.90;;;;;;5000021;28;20046;-70
2023/01/05 08:38:09;;;;;;;24.98;6.22;;;9.30;99.90;;;;;;5002584;28;20579;-70
2023/01/05 08:40:38;;;;;;;18.20;6.95;;;9.40;99.90;;;;;;4990308;28;20507;-70
2023/01/05 08:43:04;;;;;;;25.27;6.47;;;9.40;99.90;;;;;;5007265;28;20045;-72
2023/01/05 08:45:31;;;;;;;25.52;7.25;;;9.40;99.90;;;;;;4973171;28;20053;-70
2023/01/05 08:47:57;;;;;;;24.02;6.82;;;9.40;99.90;;;;;;4996827;28;20114;-70
2023/01/05 08:50:24;;;;;;;25.70;6.47;;;9.40;99.90;;;;;;5002772;28;20066;-70
2023/01/05 08:52:49;;;;;;;27.17;8.20;;;9.40;99.90;;;;;;5006366;28;20097;-70
2023/01/05 08:55:15;;;;;;;25.83;6.97;;;9.40;99.90;;;;;;4990246;28;20050;-70
2023/01/05 08:57:41;;;;;;;25.83;7.35;;;9.40;99.90;;;;;;5004045;28;20034;-70
2023/01/05 09:00:07;;;;;;;29.92;6.50;;;9.40;99.90;;;;;;5006213;28;20046;-70
2023/01/05 09:02:34;;;;;;;28.63;8.48;;;9.40;99.90;;;;;;4985702;28;20077;-70
2023/01/05 09:05:00;;;;;;;18.38;7.05;;;9.40;99.90;;;;;;5004141;28;20092;-70
2023/01/05 09:07:27;;;;;;;30.35;7.32;;;9.40;99.90;;;;;;4978355;28;20085;-70
2023/01/05 09:09:53;;;;;;;29.45;7.43;;;9.40;99.90;;;;;;5007890;28;20112;-70
2023/01/05 09:12:18;;;;;;;25.67;6.03;;;9.40;99.90;;;;;;5007199;28;20466;-70
2023/01/05 09:14:44;;;;;;;26.60;6.30;;;9.50;99.90;;;;;;5006937;28;20064;-70
2023/01/05 09:17:10;;;;;;;17.00;6.40;;;9.50;99.90;;;;;;5007765;28;20407;-70
2023/01/05 09:19:36;;;;;;;26.42;7.45;;;9.50;99.90;;;;;;5007080;28;20050;-69
2023/01/05 09:22:02;;;;;;;24.40;6.30;;;9.50;99.90;;;;;;4990179;28;20547;-70
2023/01/05 09:24:28;;;;;;;19.55;5.53;;;9.50;99.90;;;;;;5007875;28;20073;-70
2023/01/05 09:26:55;;;;;;;24.20;5.53;;;9.50;99.90;;;;;;5007156;28;20057;-69
2023/01/05 09:29:21;;;;;;;26.58;6.35;;;9.50;99.90;;;;;;5001539;28;20077;-69
2023/01/05 09:31:47;;;;;;;21.13;9.00;;;9.50;99.90;;;;;;5007077;28;20761;-69
2023/01/05 09:34:12;;;;;;;23.48;6.45;;;9.50;99.90;;;;;;5004192;28;20078;-70
2023/01/05 09:36:38;;;;;;;24.38;6.55;;;9.50;99.90;;;;;;5006237;28;20085;-70
2023/01/05 09:39:05;;;;;;;27.85;6.45;;;9.50;99.90;;;;;;5007120;28;20042;-70
2023/01/05 09:41:39;;;;;;;22.15;7.03;;;9.50;99.90;;;;;;5006025;28;20644;-70
2023/01/05 09:44:13;;;;;;;40.03;7.65;;;9.50;99.90;;;;;;5005556;28;20053;-70
2023/01/05 09:46:45;;;;;;;33.65;8.15;;;9.60;99.90;;;;;;4999807;28;20100;-70
2023/01/05 09:49:15;;;;;;;27.98;6.03;;;9.60;99.90;;;;;;5007660;28;20054;-70
2023/01/05 09:51:41;;;;;;;28.35;7.30;;;9.60;99.90;;;;;;5006604;28;20511;-69
2023/01/05 09:54:15;;;;;;;26.30;7.57;;;9.60;99.90;;;;;;5007677;28;20726;-69
2023/01/05 09:56:44;;;;;;;21.52;6.10;;;9.60;99.90;;;;;;5005818;28;20057;-69
2023/01/05 09:59:35;;;;;;;27.17;8.60;;;9.60;99.90;;;;;;5006976;28;20042;-69
2023/01/05 10:02:16;;;;;;;26.95;6.47;;;9.60;99.90;;;;;;5001447;28;20101;-69
2023/01/05 10:04:42;;;;;;;25.23;6.85;;;9.60;99.90;;;;;;5001237;28;20049;-69
2023/01/05 10:07:34;;;;;;;27.55;6.57;;;9.60;99.90;;;;;;5001215;28;20153;-70
2023/01/05 10:10:14;;;;;;;37.83;7.05;;;9.60;99.90;;;;;;5001564;28;20084;-70
2023/01/05 10:13:04;;;;;;;31.83;7.82;;;9.60;99.90;;;;;;5003559;28;20116;-69
2023/01/05 10:15:51;;;;;;;26.90;5.75;;;9.60;99.90;;;;;;4998666;28;20395;-69
2023/01/05 10:18:23;;;;;;;28.27;6.75;;;9.70;99.90;;;;;;4999481;28;20042;-69
2023/01/05 10:21:00;;;;;;;27.63;7.50;;;9.60;99.90;;;;;;4998675;28;20169;-69
2023/01/05 10:23:35;;;;;;;23.63;6.07;;;9.70;99.90;;;;;;5004472;28;20043;-70
2023/01/05 10:26:31;;;;;;;30.83;7.72;;;9.70;99.90;;;;;;5003825;28;20055;-69
2023/01/05 10:29:05;;;;;;;29.13;6.90;;;9.70;99.90;;;;;;5001974;28;20050;-69
2023/01/05 10:31:53;;;;;;;18.88;6.65;;;9.70;99.90;;;;;;5003470;28;20042;-69
2023/01/05 10:34:29;;;;;;;44.55;6.60;;;9.70;99.90;;;;;;5002758;28;20236;-69
2023/01/05 10:37:33;;;;;;;18.75;6.57;;;9.70;99.90;;;;;;5004290;28;20396;-69
2023/01/05 10:40:13;;;;;;;31.05;6.40;;;9.70;99.90;;;;;;5004898;28;20384;-70
2023/01/05 10:43:04;;;;;;;18.85;6.40;;;9.70;99.90;;;;;;5005991;28;20045;-70
2023/01/05 10:45:30;;;;;;;29.60;6.43;;;9.70;99.90;;;;;;4998495;28;20399;-69
2023/01/05 10:47:57;;;;;;;25.67;6.53;;;9.70;99.90;;;;;;5004389;28;20041;-69
2023/01/05 10:50:37;;;;;;;23.60;6.75;;;9.70;99.90;;;;;;4999601;28;20134;-69
2023/01/05 10:53:13;;;;;;;22.73;6.97;;;9.70;99.90;;;;;;5006037;28;20077;-69
2023/01/05 10:56:03;;;;;;;23.58;6.35;;;9.70;99.90;;;;;;5002036;28;20495;-69
2023/01/05 10:58:31;;;;;;;29.33;7.30;;;9.70;99.90;;;;;;4987365;28;20050;-69
2023/01/05 11:01:02;;;;;;;20.83;6.55;;;9.70;99.90;;;;;;5001671;28;20120;-69
2023/01/05 11:03:41;;;;;;;18.60;6.00;;;9.80;99.90;;;;;;5010717;28;20038;-70
2023/01/05 11:06:17;;;;;;;21.83;5.85;;;9.80;99.90;;;;;;4998722;28;20049;-69
2023/01/05 11:08:42;;;;;;;21.98;5.85;;;9.80;99.90;;;;;;4989424;28;20042;-69
2023/01/05 11:11:09;;;;;;;25.23;7.15;;;9.80;99.90;;;;;;5006787;28;20518;-69
2023/01/05 11:13:45;;;;;;;22.40;6.00;;;9.80;99.90;;;;;;5010948;28;20104;-69
2023/01/05 11:16:16;;;;;;;18.17;5.25;;;9.80;99.90;;;;;;5007367;28;20050;-70
2023/01/05 11:19:01;;;;;;;35.00;6.07;;;9.80;99.90;;;;;;5008670;28;20092;-69
2023/01/05 11:21:44;;;;;;;17.33;6.05;;;9.90;99.90;;;;;;5009970;28;20050;-70
2023/01/05 11:24:28;;;;;;;16.33;5.03;;;9.80;99.90;;;;;;5011041;28;20046;-69
2023/01/05 11:27:22;;;;;;;15.90;5.03;;;9.90;99.90;;;;;;5010605;28;20057;-69
2023/01/05 11:30:13;;;;;;;16.80;5.55;;;9.90;99.90;;;;;;5007281;28;20041;-70
2023/01/05 11:32:40;;;;;;;15.50;4.15;;;9.90;99.90;;;;;;4997666;28;20104;-69
2023/01/05 11:35:23;;;;;;;12.50;4.57;;;9.90;99.90;;;;;;5005318;28;20076;-70
2023/01/05 11:37:48;;;;;;;16.58;3.92;;;9.90;99.90;;;;;;5006304;28;20054;-68
2023/01/05 11:40:17;;;;;;;14.95;4.15;;;9.90;99.90;;;;;;5010715;28;21158;-69
2023/01/05 11:42:44;;;;;;;18.58;5.03;;;9.90;99.90;;;;;;5010460;28;20045;-68
2023/01/05 11:45:28;;;;;;;19.40;4.32;;;9.90;99.90;;;;;;5004694;28;20086;-69
2023/01/05 11:47:55;;;;;;;23.02;5.20;;;9.90;99.90;;;;;;5009063;28;20053;-68
2023/01/05 11:50:25;;;;;;;22.20;3.97;;;9.90;99.90;;;;;;5006201;28;20419;-69
2023/01/05 11:52:53;;;;;;;15.13;4.10;;;9.90;99.90;;;;;;4969721;28;20502;-68
2023/01/05 11:55:19;;;;;;;15.65;4.40;;;10.00;99.90;;;;;;5006704;28;20177;-68
2023/01/05 11:57:49;;;;;;;11.85;3.67;;;9.90;99.90;;;;;;5009715;28;20050;-68
2023/01/05 12:00:55;;;;;;;21.70;5.45;;;9.90;99.90;;;;;;4991651;28;20049;-68
2023/01/05 12:03:48;;;;;;;11.07;3.90;;;10.00;99.90;;;;;;5001479;28;20054;-68
2023/01/05 12:06:50;;;;;;;12.65;3.60;;;10.00;99.90;;;;;;5007346;28;20057;-69
2023/01/05 12:09:31;;;;;;;12.52;4.35;;;10.00;99.90;;;;;;4979980;28;20088;-69
2023/01/05 12:12:08;;;;;;;23.50;6.30;;;9.90;99.90;;;;;;5005312;28;20096;-69
2023/01/05 12:14:43;;;;;;;19.50;5.53;;;9.90;99.90;;;;;;4987065;28;20052;-69
2023/01/05 12:17:14;;;;;;;16.98;4.80;;;9.90;99.90;;;;;;5001650;28;20284;-69
2023/01/05 12:20:14;;;;;;;20.45;5.38;;;9.90;99.90;;;;;;5008841;28;20045;-69
2023/01/05 12:22:55;;;;;;;19.60;5.82;;;9.90;99.90;;;;;;4999404;28;20057;-69
2023/01/05 12:25:35;;;;;;;18.05;5.57;;;9.90;99.90;;;;;;4985403;28;20567;-69
2023/01/05 12:28:15;;;;;;;19.58;4.95;;;10.00;99.90;;;;;;4987459;28;20058;-69
2023/01/05 12:30:59;;;;;;;25.10;5.80;;;10.10;99.90;;;;;;4994321;28;20049;-69
2023/01/05 12:33:33;;;;;;;20.50;5.10;;;10.10;99.90;;;;;;5005874;28;20169;-69
2023/01/05 12:36:27;;;;;;;17.55;5.20;;;10.10;99.90;;;;;;4993303;28;20038;-69
2023/01/05 12:39:23;;;;;;;15.57;5.07;;;10.10;99.90;;;;;;4993096;28;20069;-69
2023/01/05 12:42:15;;;;;;;26.00;6.05;;;10.10;99.90;;;;;;5008114;28;20133;-69
2023/01/05 12:45:16;;;;;;;23.25;5.82;;;10.10;99.90;;;;;;5001809;28;20061;-67
2023/01/05 12:48:04;;;;;;;16.42;4.93;;;10.10;99.90;;;;;;5005140;28;20069;-68
2023/01/05 12:51:06;;;;;;;18.10;5.90;;;10.10;99.90;;;;;;5006817;28;20415;-68
2023/01/05 12:53:34;;;;;;;22.00;5.25;;;10.10;99.90;;;;;;5004962;28;20101;-68
2023/01/05 12:56:33;;;;;;;22.90;5.55;;;10.10;99.90;;;;;;4990225;28;20073;-69
2023/01/05 12:59:14;;;;;;;28.90;12.43;;;10.10;99.90;;;;;;4995291;28;20129;-69
2023/01/05 13:01:54;;;;;;;17.75;7.40;;;10.10;99.90;;;;;;5006371;28;20120;-69
2023/01/05 13:04:37;;;;;;;23.08;6.55;;;10.10;99.90;;;;;;5002792;28;20046;-69
2023/01/05 13:07:09;;;;;;;19.48;7.75;;;10.10;99.90;;;;;;4976910;28;20053;-69
2023/01/05 13:09:36;;;;;;;21.30;7.38;;;10.10;99.90;;;;;;5008342;28;20050;-69
2023/01/05 13:12:12;;;;;;;15.02;6.72;;;10.10;99.90;;;;;;5007577;28;20058;-69
2023/01/05 13:14:51;;;;;;;24.98;7.00;;;10.10;99.90;;;;;;5003365;28;20084;-69
2023/01/05 13:17:30;;;;;;;28.52;7.22;;;10.10;99.90;;;;;;5007905;28;20045;-69
2023/01/05 13:20:25;;;;;;;39.97;6.82;;;10.10;99.90;;;;;;5006526;28;20038;-69
2023/01/05 13:22:58;;;;;;;18.27;6.55;;;10.10;99.90;;;;;;4985494;28;20053;-69
2023/01/05 13:25:28;;;;;;;31.42;7.03;;;10.00;99.90;;;;;;5007560;28;20056;-69
2023/01/05 13:27:54;;;;;;;25.77;6.97;;;10.00;99.90;;;;;;5002231;28;20583;-69
2023/01/05 13:30:30;;;;;;;22.70;6.80;;;10.00;99.90;;;;;;5007775;28;20057;-69
2023/01/05 13:33:15;;;;;;;22.48;6.18;;;9.90;99.90;;;;;;5007740;28;20121;-69
2023/01/05 13:35:59;;;;;;;21.30;6.40;;;9.90;99.90;;;;;;5006955;28;20129;-69
2023/01/05 13:38:34;;;;;;;20.70;6.95;;;9.90;99.90;;;;;;5007836;28;20410;-69
2023/01/05 13:41:26;;;;;;;20.10;7.10;;;9.90;99.90;;;;;;4997324;28;20189;-69